createdAt,value
2018-08-13T00:00:44.455Z,59.20
2018-08-13T00:01:44.350Z,59.49
2018-08-13T00:02:44.315Z,59.30
2018-08-13T00:03:44.204Z,59.30
2018-08-13T00:04:44.177Z,59.30
2018-08-13T00:05:44.050Z,59.49
2018-08-13T00:06:43.970Z,59.78
2018-08-13T00:07:43.932Z,60.17
2018-08-13T00:08:43.819Z,59.59
2018-08-13T00:09:43.725Z,60.55
2018-08-13T00:10:43.682Z,60.07
2018-08-13T00:11:43.578Z,60.46
2018-08-13T00:12:43.500Z,60.62
2018-08-13T00:13:43.415Z,60.46
2018-08-13T00:14:43.340Z,61.13
2018-08-13T00:15:43.270Z,61.13
2018-08-13T00:16:43.184Z,61.58
2018-08-13T00:17:43.244Z,61.71
2018-08-13T00:18:43.025Z,62.48
2018-08-13T00:19:42.999Z,62.64
2018-08-13T00:20:43.895Z,62.77
2018-08-13T00:21:42.785Z,62.38
2018-08-13T00:22:42.731Z,62.19
2018-08-13T00:23:42.626Z,62.19
2018-08-13T00:24:42.573Z,62.45
2018-08-13T00:25:42.495Z,62.06
2018-08-13T00:26:42.401Z,62.67
2018-08-13T00:27:42.302Z,62.87
2018-08-13T00:28:42.249Z,62.83
2018-08-13T00:29:42.150Z,62.74
2018-08-13T00:30:42.082Z,62.93
2018-08-13T00:31:42.084Z,63.12
2018-08-13T00:32:41.926Z,63.31
2018-08-13T00:33:41.840Z,63.31
2018-08-13T00:36:24.064Z,63.12
2018-08-13T00:37:24.995Z,63.12
2018-08-13T00:38:23.876Z,62.74
2018-08-13T00:39:23.812Z,62.74
2018-08-13T00:40:23.713Z,62.83
2018-08-13T00:41:23.631Z,62.83
2018-08-13T00:42:23.567Z,62.83
2018-08-13T00:45:05.531Z,62.26
2018-08-13T00:46:05.436Z,62.35
2018-08-13T00:47:05.384Z,62.06
2018-08-13T00:48:05.328Z,62.35
2018-08-13T00:49:05.218Z,62.06
2018-08-13T00:50:05.132Z,62.26
2018-08-13T00:51:05.040Z,61.87
2018-08-13T00:52:06.015Z,62.35
2018-08-13T00:53:05.035Z,62.26
2018-08-13T00:55:47.047Z,61.97
2018-08-13T00:56:46.982Z,62.54
2018-08-13T00:57:46.869Z,62.03
2018-08-13T00:58:46.796Z,61.94
2018-08-13T00:59:46.717Z,62.03
2018-08-13T01:00:46.653Z,62.23
2018-08-13T01:01:46.602Z,62.16
2018-08-13T01:02:46.477Z,62.06
2018-08-13T01:03:46.402Z,62.35
2018-08-13T01:06:28.533Z,61.87
2018-08-13T01:07:29.485Z,62.13
2018-08-13T01:08:28.367Z,62.16
2018-08-13T01:09:28.326Z,62.74
2018-08-13T01:10:28.221Z,63.22
2018-08-13T01:11:28.141Z,63.48
2018-08-13T01:12:28.077Z,63.28
2018-08-13T01:15:10.023Z,64.15
2018-08-13T01:16:09.975Z,64.34
2018-08-13T01:17:09.903Z,64.53
2018-08-13T01:18:09.806Z,64.53
2018-08-13T01:19:09.717Z,64.53
2018-08-13T01:20:09.669Z,64.73
2018-08-13T01:21:09.588Z,64.63
2018-08-13T01:23:51.575Z,64.82
2018-08-13T01:24:51.473Z,64.43
2018-08-13T01:25:51.377Z,65.30
2018-08-13T01:26:51.342Z,65.59
2018-08-13T01:27:51.230Z,65.40
2018-08-13T01:30:33.084Z,65.08
2018-08-13T01:31:32.980Z,65.97
2018-08-13T01:32:32.887Z,65.69
2018-08-13T01:33:32.812Z,65.75
2018-08-13T01:34:32.734Z,65.88
2018-08-13T01:37:14.534Z,65.50
2018-08-13T01:38:14.469Z,65.01
2018-08-13T01:39:14.384Z,65.50
2018-08-13T01:40:14.333Z,65.50
2018-08-13T01:41:14.247Z,65.30
2018-08-13T01:42:14.163Z,65.50
2018-08-13T01:43:14.065Z,65.50
2018-08-13T01:44:13.995Z,65.11
2018-08-13T01:45:13.954Z,65.50
2018-08-13T01:46:13.847Z,65.50
2018-08-13T01:47:13.752Z,65.50
2018-08-13T01:48:13.678Z,65.69
2018-08-13T01:49:13.592Z,65.88
2018-08-13T01:50:14.533Z,66.07
2018-08-13T01:51:13.470Z,66.23
2018-08-13T01:53:55.538Z,65.69
2018-08-13T01:54:55.476Z,65.30
2018-08-13T01:55:55.381Z,64.92
2018-08-13T01:56:55.337Z,64.34
2018-08-13T01:57:55.226Z,64.63
2018-08-13T01:58:55.161Z,64.63
2018-08-13T01:59:55.076Z,64.73
2018-08-13T02:00:55.046Z,64.53
2018-08-13T02:01:54.911Z,64.53
2018-08-13T02:02:54.839Z,64.53
2018-08-13T02:03:54.749Z,64.43
2018-08-13T02:04:54.677Z,64.53
2018-08-13T02:05:54.660Z,64.43
2018-08-13T02:06:54.532Z,64.63
2018-08-13T02:07:54.433Z,64.73
2018-08-13T02:10:36.600Z,64.25
2018-08-13T02:11:36.517Z,64.08
2018-08-13T02:12:36.382Z,63.60
2018-08-13T02:13:36.356Z,64.08
2018-08-13T02:14:36.231Z,64.08
2018-08-13T02:17:18.089Z,64.37
2018-08-13T02:18:17.988Z,64.76
2018-08-13T02:19:17.892Z,64.28
2018-08-13T02:22:00.102Z,65.14
2018-08-13T02:22:59.974Z,64.76
2018-08-13T02:23:59.905Z,64.47
2018-08-13T02:24:59.819Z,65.05
2018-08-13T02:25:59.844Z,65.33
2018-08-13T02:26:59.690Z,65.59
2018-08-13T02:27:59.580Z,65.30
2018-08-13T02:30:41.562Z,65.69
2018-08-13T02:31:42.498Z,65.63
2018-08-13T02:32:41.414Z,66.07
2018-08-13T02:33:41.321Z,66.55
2018-08-13T02:34:41.237Z,66.65
2018-08-13T02:35:41.175Z,66.55
2018-08-13T02:36:41.111Z,66.36
2018-08-13T02:39:23.065Z,66.55
2018-08-13T02:42:05.082Z,66.55
2018-08-13T02:43:04.989Z,66.27
2018-08-13T02:44:04.955Z,65.97
2018-08-13T02:45:04.833Z,66.27
2018-08-13T02:46:04.741Z,65.69
2018-08-13T02:47:05.701Z,66.17
2018-08-13T02:48:04.596Z,65.88
2018-08-13T02:49:04.537Z,66.36
2018-08-13T02:50:04.444Z,66.55
2018-08-13T02:51:04.351Z,66.27
2018-08-13T02:52:04.296Z,66.65
2018-08-13T02:53:05.205Z,66.27
2018-08-13T02:54:04.135Z,66.55
2018-08-13T02:55:04.066Z,65.88
2018-08-13T02:56:03.952Z,66.17
2018-08-13T02:57:03.871Z,66.27
2018-08-13T02:58:03.898Z,66.17
2018-08-13T02:59:03.734Z,66.55
2018-08-13T03:00:03.727Z,65.97
2018-08-13T03:01:03.814Z,66.17
2018-08-13T03:02:03.610Z,66.46
2018-08-13T03:03:03.918Z,66.65
2018-08-13T03:04:03.318Z,66.36
2018-08-13T03:05:03.311Z,66.27
2018-08-13T03:06:03.156Z,66.17
2018-08-13T03:07:03.093Z,66.17
2018-08-13T03:08:03.036Z,66.27
2018-08-13T03:09:02.933Z,66.36
2018-08-13T03:10:02.884Z,66.55
2018-08-13T03:11:02.769Z,66.55
2018-08-13T03:12:02.704Z,66.17
2018-08-13T03:13:02.644Z,65.78
2018-08-13T03:14:02.546Z,65.11
2018-08-13T03:15:02.482Z,65.63
2018-08-13T03:16:02.379Z,65.43
2018-08-13T03:17:02.490Z,64.76
2018-08-13T03:18:02.217Z,64.56
2018-08-13T03:19:02.182Z,65.14
2018-08-13T03:20:02.085Z,64.86
2018-08-13T03:21:01.990Z,64.56
2018-08-13T03:22:01.920Z,65.14
2018-08-13T03:23:01.823Z,65.33
2018-08-13T03:24:01.736Z,65.53
2018-08-13T03:25:01.720Z,65.24
2018-08-13T03:26:01.578Z,65.63
2018-08-13T03:27:01.513Z,65.56
2018-08-13T03:28:01.432Z,64.59
2018-08-13T03:29:01.575Z,64.69
2018-08-13T03:30:01.296Z,64.40
2018-08-13T03:31:01.198Z,64.89
2018-08-13T03:32:01.137Z,64.50
2018-08-13T03:33:01.038Z,64.79
2018-08-13T03:34:00.973Z,64.50
2018-08-13T03:35:00.885Z,64.12
2018-08-13T03:36:00.803Z,64.40
2018-08-13T03:37:00.735Z,64.31
2018-08-13T03:38:00.643Z,63.92
2018-08-13T03:39:00.588Z,64.21
2018-08-13T03:40:00.498Z,64.12
2018-08-13T03:41:00.410Z,64.31
2018-08-13T03:42:00.354Z,64.21
2018-08-13T03:43:00.253Z,64.40
2018-08-13T03:44:00.242Z,64.02
2018-08-13T03:45:01.115Z,64.02
2018-08-13T03:46:00.140Z,64.21
2018-08-13T03:46:59.943Z,64.12
2018-08-13T03:47:59.850Z,63.15
2018-08-13T03:50:42.269Z,63.82
2018-08-13T03:51:42.012Z,63.67
2018-08-13T03:52:41.920Z,63.73
2018-08-13T03:55:24.101Z,64.31
2018-08-13T03:56:24.025Z,64.59
2018-08-13T03:57:23.925Z,64.12
2018-08-13T03:58:23.852Z,64.40
2018-08-13T03:59:23.778Z,64.40
2018-08-13T04:00:23.726Z,64.40
2018-08-13T04:01:23.626Z,64.21
2018-08-13T04:02:23.562Z,63.92
2018-08-13T04:03:23.450Z,64.50
2018-08-13T04:04:23.399Z,64.40
2018-08-13T04:05:23.294Z,64.73
2018-08-13T04:06:24.237Z,64.69
2018-08-13T04:07:23.136Z,65.56
2018-08-13T04:08:23.061Z,65.85
2018-08-13T04:09:23.016Z,65.94
2018-08-13T04:10:22.932Z,66.24
2018-08-13T04:11:22.840Z,66.62
2018-08-13T04:14:05.072Z,68.26
2018-08-13T04:15:05.020Z,68.74
2018-08-13T04:16:05.097Z,68.44
2018-08-13T04:17:04.857Z,69.12
2018-08-13T04:18:04.793Z,69.51
2018-08-13T04:19:04.695Z,70.37
2018-08-13T04:20:04.644Z,70.82
2018-08-13T04:21:04.660Z,71.72
2018-08-13T04:22:04.457Z,73.03
2018-08-13T04:24:46.588Z,74.09
2018-08-13T04:25:46.524Z,75.49
2018-08-13T04:26:46.443Z,75.69
2018-08-13T04:27:46.361Z,75.79
2018-08-13T04:28:46.266Z,76.65
2018-08-13T04:29:46.208Z,77.04
2018-08-13T04:30:46.168Z,77.51
2018-08-13T04:31:46.060Z,78.48
2018-08-13T04:32:46.030Z,78.73
2018-08-13T04:35:28.097Z,79.11
2018-08-13T04:36:28.056Z,79.40
2018-08-13T04:37:28.086Z,78.92
2018-08-13T04:38:27.869Z,79.21
2018-08-13T04:39:27.772Z,79.40
2018-08-13T04:40:27.697Z,81.23
2018-08-13T04:41:27.642Z,80.84
2018-08-13T04:42:27.655Z,82.57
2018-08-13T04:43:27.459Z,83.15
2018-08-13T04:44:27.419Z,84.50
2018-08-13T04:45:27.318Z,84.01
2018-08-13T04:46:28.244Z,84.40
2018-08-13T04:47:27.142Z,85.55
2018-08-13T04:48:27.068Z,85.65
2018-08-13T04:49:27.046Z,84.64
2018-08-13T04:50:26.923Z,84.55
2018-08-13T04:51:26.841Z,86.66
2018-08-13T04:52:26.766Z,87.15
2018-08-13T04:53:26.663Z,86.38
2018-08-13T04:54:26.616Z,87.92
2018-08-13T04:55:26.516Z,90.41
2018-08-13T04:58:08.637Z,90.80
2018-08-13T04:59:09.592Z,90.60
2018-08-13T05:00:08.462Z,90.03
2018-08-13T05:01:08.385Z,90.22
2018-08-13T05:02:08.279Z,89.16
2018-08-13T05:03:08.233Z,90.70
2018-08-13T05:04:08.651Z,89.54
2018-08-13T05:05:08.042Z,90.12
2018-08-13T05:06:07.984Z,90.12
2018-08-13T05:07:07.915Z,90.03
2018-08-13T05:08:07.867Z,91.85
2018-08-13T05:09:07.753Z,91.85
2018-08-13T05:10:07.655Z,91.75
2018-08-13T05:11:07.577Z,92.72
2018-08-13T05:12:07.532Z,92.24
2018-08-13T05:13:07.408Z,93.10
2018-08-13T05:14:07.347Z,93.39
2018-08-13T05:15:07.269Z,92.77
2018-08-13T05:16:07.265Z,93.15
2018-08-13T05:18:49.246Z,93.58
2018-08-13T05:19:49.028Z,94.78
2018-08-13T05:20:48.941Z,95.60
2018-08-13T05:21:48.902Z,97.09
2018-08-13T05:22:48.793Z,98.14
2018-08-13T05:23:48.716Z,98.91
2018-08-13T05:24:48.676Z,98.53
2018-08-13T05:27:30.618Z,95.07
2018-08-13T05:30:12.647Z,97.76
2018-08-13T05:32:54.616Z,99.99
2018-08-13T05:35:36.658Z,97.04
2018-08-13T05:38:18.665Z,98.58
2018-08-13T05:39:18.604Z,98.63
2018-08-13T05:40:18.493Z,98.63
2018-08-13T05:41:18.535Z,99.20
2018-08-13T05:42:18.305Z,99.99
2018-08-13T05:43:18.232Z,99.99
2018-08-13T05:44:18.139Z,99.99
2018-08-13T05:45:18.102Z,99.99
2018-08-13T05:46:18.042Z,99.99
2018-08-13T05:47:17.905Z,99.99
2018-08-13T05:48:17.818Z,99.99
2018-08-13T05:51:00.133Z,99.99
2018-08-13T05:52:00.055Z,99.99
2018-08-13T05:52:59.993Z,99.99
2018-08-13T05:53:59.878Z,99.99
2018-08-13T05:54:59.973Z,99.99
2018-08-13T05:56:00.748Z,99.99
2018-08-13T05:56:59.671Z,99.99
2018-08-13T05:59:41.614Z,99.99
2018-08-13T06:00:41.631Z,99.99
2018-08-13T06:01:41.454Z,99.99
2018-08-13T06:02:41.396Z,99.99
2018-08-13T06:03:41.298Z,99.99
2018-08-13T06:06:23.142Z,99.99
2018-08-13T06:07:23.047Z,99.99
2018-08-13T06:08:22.964Z,99.99
2018-08-13T06:09:22.900Z,99.99
2018-08-13T06:10:22.820Z,99.99
2018-08-13T06:11:22.829Z,99.99
2018-08-13T06:12:22.643Z,99.99
2018-08-13T06:13:22.578Z,99.99
2018-08-13T06:14:22.483Z,99.99
2018-08-13T06:17:04.668Z,99.99
2018-08-13T06:18:04.578Z,99.99
2018-08-13T06:19:04.483Z,99.99
2018-08-13T06:20:04.392Z,99.99
2018-08-13T06:21:04.308Z,99.99
2018-08-13T06:22:04.263Z,99.99
2018-08-13T06:23:04.139Z,99.99
2018-08-13T06:25:46.113Z,99.99
2018-08-13T06:26:46.075Z,99.99
2018-08-13T06:27:45.964Z,99.99
2018-08-13T06:30:28.120Z,99.99
2018-08-13T06:31:28.065Z,99.99
2018-08-13T06:32:27.996Z,99.99
2018-08-13T06:33:27.898Z,99.99
2018-08-13T06:34:27.826Z,99.99
2018-08-13T06:35:27.729Z,99.99
2018-08-13T06:36:27.667Z,99.99
2018-08-13T06:37:27.588Z,99.99
2018-08-13T06:38:27.487Z,99.99
2018-08-13T06:39:27.411Z,99.99
2018-08-13T06:40:27.362Z,99.99
2018-08-13T06:41:27.279Z,99.99
2018-08-13T06:42:27.166Z,99.99
2018-08-13T06:45:09.170Z,99.99
2018-08-13T06:47:51.129Z,99.99
2018-08-13T06:48:51.066Z,99.99
2018-08-13T06:49:51.036Z,99.99
2018-08-13T06:52:33.134Z,99.99
2018-08-13T06:55:15.154Z,99.99
2018-08-13T06:56:15.076Z,99.99
2018-08-13T06:57:15.004Z,99.99
2018-08-13T06:58:14.921Z,99.99
2018-08-13T06:59:14.839Z,99.99
2018-08-13T07:00:16.759Z,99.99
2018-08-13T07:01:14.666Z,99.99
2018-08-13T07:02:14.587Z,99.99
2018-08-13T07:03:14.499Z,99.99
2018-08-13T07:04:14.431Z,99.99
2018-08-13T07:05:14.331Z,99.99
2018-08-13T07:06:14.492Z,99.99
2018-08-13T07:07:14.198Z,99.99
2018-08-13T07:08:14.121Z,99.99
2018-08-13T07:09:14.032Z,99.99
2018-08-13T07:11:56.152Z,99.99
2018-08-13T07:12:56.098Z,99.99
2018-08-13T07:13:55.975Z,99.99
2018-08-13T07:14:55.941Z,99.99
2018-08-13T07:15:55.819Z,99.99
2018-08-13T07:16:55.765Z,99.99
2018-08-13T07:17:55.701Z,99.99
2018-08-13T07:18:55.604Z,99.99
2018-08-13T07:19:55.513Z,99.99
2018-08-13T07:22:37.678Z,99.99
2018-08-13T07:23:37.561Z,99.99
2018-08-13T07:24:37.491Z,99.99
2018-08-13T07:25:38.428Z,99.99
2018-08-13T07:26:37.318Z,99.99
2018-08-13T07:27:37.365Z,99.99
2018-08-13T07:28:37.161Z,99.99
2018-08-13T07:29:37.095Z,99.99
2018-08-13T07:30:37.002Z,99.99
2018-08-13T07:31:37.953Z,99.99
2018-08-13T07:32:36.848Z,99.99
2018-08-13T07:33:36.781Z,99.99
2018-08-13T07:34:36.705Z,99.99
2018-08-13T07:37:18.667Z,99.99
2018-08-13T07:38:18.581Z,99.99
2018-08-13T07:39:18.539Z,99.99
2018-08-13T07:40:18.404Z,99.99
2018-08-13T07:41:18.345Z,99.99
2018-08-13T07:42:18.357Z,99.99
2018-08-13T07:43:18.216Z,99.99
2018-08-13T07:44:18.078Z,99.99
2018-08-13T07:45:18.009Z,99.99
2018-08-13T07:46:17.931Z,99.99
2018-08-13T07:47:17.843Z,99.99
2018-08-13T07:48:17.839Z,99.99
2018-08-13T07:49:17.780Z,99.99
2018-08-13T07:50:17.611Z,99.99
2018-08-13T07:51:17.578Z,99.99
2018-08-13T07:52:17.464Z,99.99
2018-08-13T07:53:17.372Z,99.99
2018-08-13T07:54:17.459Z,99.99
2018-08-13T07:55:17.212Z,99.99
2018-08-13T07:56:17.164Z,99.99
2018-08-13T07:57:17.091Z,99.99
2018-08-13T07:59:59.188Z,99.99
2018-08-13T08:00:59.069Z,99.99
2018-08-13T08:01:58.984Z,99.99
2018-08-13T08:02:58.928Z,99.99
2018-08-13T08:03:58.922Z,99.99
2018-08-13T08:06:40.652Z,99.99
2018-08-13T08:07:40.601Z,99.99
2018-08-13T08:08:40.507Z,99.99
2018-08-13T08:09:40.449Z,99.99
2018-08-13T08:10:40.341Z,99.99
2018-08-13T08:11:40.247Z,99.99
2018-08-13T08:12:40.200Z,99.99
2018-08-13T08:15:22.174Z,99.99
2018-08-13T08:16:22.070Z,99.99
2018-08-13T08:17:22.000Z,99.99
2018-08-13T08:18:21.919Z,99.99
2018-08-13T08:19:21.933Z,99.99
2018-08-13T08:20:21.794Z,99.99
2018-08-13T08:21:21.756Z,99.99
2018-08-13T08:24:03.645Z,99.99
2018-08-13T08:25:03.619Z,99.99
2018-08-13T08:26:03.522Z,99.99
2018-08-13T08:27:03.420Z,99.99
2018-08-13T08:28:03.338Z,99.99
2018-08-13T08:29:03.318Z,99.99
2018-08-13T08:30:03.192Z,99.99
2018-08-13T08:32:45.152Z,99.99
2018-08-13T08:33:46.117Z,99.99
2018-08-13T08:34:45.049Z,99.99
2018-08-13T08:37:27.156Z,99.99
2018-08-13T08:38:28.091Z,99.99
2018-08-13T08:39:27.007Z,99.99
2018-08-13T08:40:26.997Z,99.99
2018-08-13T08:41:26.841Z,99.99
2018-08-13T08:44:08.789Z,99.99
2018-08-13T08:45:08.606Z,99.99
2018-08-13T08:46:08.500Z,99.99
2018-08-13T08:48:50.682Z,99.99
2018-08-13T08:51:32.659Z,99.99
2018-08-13T08:52:32.653Z,99.99
2018-08-13T08:53:32.613Z,99.99
2018-08-13T08:54:32.442Z,99.99
2018-08-13T08:55:32.379Z,99.99
2018-08-13T08:56:32.266Z,99.99
2018-08-13T08:57:32.195Z,99.99
2018-08-13T08:58:32.130Z,99.99
2018-08-13T08:59:32.040Z,99.99
2018-08-13T09:00:32.989Z,99.99
2018-08-13T09:01:31.864Z,99.99
2018-08-13T09:04:14.203Z,99.99
2018-08-13T09:05:14.091Z,99.99
2018-08-13T09:06:14.061Z,99.99
2018-08-13T09:08:56.165Z,99.99
2018-08-13T09:09:56.219Z,99.99
2018-08-13T09:10:56.013Z,99.99
2018-08-13T09:11:55.956Z,99.99
2018-08-13T09:12:55.860Z,99.99
2018-08-13T09:13:55.790Z,99.99
2018-08-13T09:14:55.693Z,99.99
2018-08-13T09:15:55.636Z,99.99
2018-08-13T09:16:55.570Z,99.99
2018-08-13T09:17:55.485Z,99.99
2018-08-13T09:18:55.400Z,99.99
2018-08-13T09:21:37.676Z,99.99
2018-08-13T09:22:38.620Z,99.99
2018-08-13T09:23:37.521Z,99.99
2018-08-13T09:24:37.462Z,99.99
2018-08-13T09:25:37.421Z,99.99
2018-08-13T09:26:37.318Z,99.99
2018-08-13T09:27:37.189Z,99.99
2018-08-13T09:28:37.240Z,99.99
2018-08-13T09:29:37.081Z,99.99
2018-08-13T09:30:36.972Z,99.99
2018-08-13T09:31:36.886Z,99.99
2018-08-13T09:32:36.806Z,99.99
2018-08-13T09:33:36.715Z,99.99
2018-08-13T09:34:36.668Z,99.99
2018-08-13T09:35:36.578Z,99.99
2018-08-13T09:38:18.721Z,99.99
2018-08-13T09:39:18.624Z,99.99
2018-08-13T09:40:18.512Z,99.99
2018-08-13T09:41:18.442Z,99.99
2018-08-13T09:42:18.366Z,99.99
2018-08-13T09:43:18.274Z,99.99
2018-08-13T09:44:18.232Z,99.99
2018-08-13T09:45:18.138Z,99.99
2018-08-13T09:46:18.037Z,99.99
2018-08-13T09:47:17.969Z,99.99
2018-08-13T09:48:17.940Z,99.99
2018-08-13T09:49:17.830Z,99.99
2018-08-13T09:50:17.843Z,99.99
2018-08-13T09:51:17.650Z,99.99
2018-08-13T09:52:17.694Z,99.99
2018-08-13T09:53:17.479Z,99.99
2018-08-13T09:54:17.421Z,99.99
2018-08-13T09:55:17.362Z,99.99
2018-08-13T09:56:17.244Z,99.99
2018-08-13T09:57:17.207Z,99.99
2018-08-13T09:58:17.090Z,99.99
2018-08-13T09:59:17.046Z,99.99
2018-08-13T10:00:16.956Z,99.99
2018-08-13T10:01:16.904Z,99.99
2018-08-13T10:02:16.795Z,99.99
2018-08-13T10:03:16.721Z,99.99
2018-08-13T10:04:16.626Z,99.99
2018-08-13T10:05:16.549Z,99.99
2018-08-13T10:06:16.483Z,99.99
2018-08-13T10:07:16.401Z,99.99
2018-08-13T10:08:16.299Z,99.99
2018-08-13T10:09:16.241Z,99.99
2018-08-13T10:10:16.142Z,99.99
2018-08-13T10:11:17.105Z,99.99
2018-08-13T10:12:16.004Z,99.99
2018-08-13T10:14:58.188Z,99.99
2018-08-13T10:15:58.130Z,99.99
2018-08-13T10:16:58.052Z,99.99
2018-08-13T10:17:58.045Z,99.99
2018-08-13T10:18:57.874Z,99.99
2018-08-13T10:19:57.818Z,99.99
2018-08-13T10:20:57.763Z,99.99
2018-08-13T10:21:57.694Z,99.99
2018-08-13T10:22:57.571Z,99.99
2018-08-13T10:25:39.689Z,99.99
2018-08-13T10:26:39.626Z,99.99
2018-08-13T10:27:39.570Z,99.99
2018-08-13T10:28:39.505Z,99.99
2018-08-13T10:29:39.446Z,99.99
2018-08-13T10:30:39.342Z,99.99
2018-08-13T10:31:39.242Z,99.99
2018-08-13T10:32:39.203Z,99.99
2018-08-13T10:33:39.119Z,99.99
2018-08-13T10:34:39.009Z,99.99
2018-08-13T10:35:38.936Z,99.99
2018-08-13T10:36:38.916Z,99.99
2018-08-13T10:37:39.044Z,99.99
2018-08-13T10:38:39.095Z,97.72
2018-08-13T10:39:39.109Z,99.74
2018-08-13T10:40:38.757Z,97.86
2018-08-13T10:41:38.506Z,93.80
2018-08-13T10:42:38.413Z,94.04
2018-08-13T10:43:38.408Z,96.89
2018-08-13T10:44:38.366Z,97.33
2018-08-13T10:45:38.174Z,98.34
2018-08-13T10:48:20.208Z,99.99
2018-08-13T10:49:20.139Z,99.99
2018-08-13T10:50:20.041Z,99.99
2018-08-13T10:53:02.194Z,99.99
2018-08-13T10:54:02.155Z,99.99
2018-08-13T10:55:02.079Z,99.99
2018-08-13T10:56:01.998Z,99.11
2018-08-13T10:57:01.920Z,98.63
2018-08-13T10:58:01.843Z,98.58
2018-08-13T10:59:01.770Z,97.62
2018-08-13T11:00:01.672Z,97.09
2018-08-13T11:01:01.684Z,97.86
2018-08-13T11:03:43.935Z,97.72
2018-08-13T11:04:43.645Z,99.02
2018-08-13T11:05:43.546Z,99.26
2018-08-13T11:08:25.716Z,99.26
2018-08-13T11:09:25.660Z,99.84
2018-08-13T11:10:25.579Z,99.99
2018-08-13T11:11:25.488Z,99.99
2018-08-13T11:12:25.407Z,99.99
2018-08-13T11:13:26.420Z,99.99
2018-08-13T11:14:25.277Z,99.99
2018-08-13T11:15:25.176Z,99.99
2018-08-13T11:16:25.086Z,99.99
2018-08-13T11:17:25.036Z,99.99
2018-08-13T11:18:24.945Z,99.99
2018-08-13T11:19:24.901Z,99.99
2018-08-13T11:20:24.823Z,99.99
2018-08-13T11:21:24.710Z,99.99
2018-08-13T11:22:24.675Z,99.99
2018-08-13T11:25:06.932Z,99.99
2018-08-13T11:26:06.669Z,99.99
2018-08-13T11:27:06.579Z,99.99
2018-08-13T11:28:06.478Z,99.99
2018-08-13T11:29:06.402Z,99.88
2018-08-13T11:30:06.371Z,99.02
2018-08-13T11:31:06.265Z,97.91
2018-08-13T11:32:06.205Z,94.86
2018-08-13T11:33:06.112Z,90.56
2018-08-13T11:34:06.025Z,89.74
2018-08-13T11:35:05.961Z,90.17
2018-08-13T11:36:05.869Z,88.76
2018-08-13T11:37:05.890Z,86.15
2018-08-13T11:38:05.722Z,84.64
2018-08-13T11:39:05.628Z,84.00
2018-08-13T11:40:05.570Z,82.65
2018-08-13T11:41:05.511Z,82.84
2018-08-13T11:42:05.426Z,82.90
2018-08-13T11:43:05.339Z,86.83
2018-08-13T11:45:47.266Z,92.74
2018-08-13T11:48:29.236Z,96.70
2018-08-13T11:49:29.261Z,97.77
2018-08-13T11:50:29.099Z,96.61
2018-08-13T11:51:29.054Z,96.41
2018-08-13T11:52:28.939Z,96.22
2018-08-13T11:53:28.872Z,96.12
2018-08-13T11:54:28.812Z,95.74
2018-08-13T11:55:28.814Z,95.64
2018-08-13T11:56:28.828Z,95.74
2018-08-13T11:59:10.727Z,97.42
2018-08-13T12:00:10.653Z,98.97
2018-08-13T12:01:10.618Z,98.78
2018-08-13T12:02:10.577Z,99.11
2018-08-13T12:03:10.428Z,99.21
2018-08-13T12:04:10.362Z,99.98
2018-08-13T12:05:10.276Z,99.99
2018-08-13T12:06:10.372Z,99.99
2018-08-13T12:07:10.114Z,99.99
2018-08-13T12:08:10.048Z,99.99
2018-08-13T12:09:09.973Z,99.99
2018-08-13T12:10:09.909Z,99.99
2018-08-13T12:11:09.920Z,99.99
2018-08-13T12:12:10.768Z,99.99
2018-08-13T12:13:09.657Z,99.99
2018-08-13T12:15:51.721Z,99.99
2018-08-13T12:16:51.699Z,99.99
2018-08-13T12:17:51.580Z,99.99
2018-08-13T12:20:33.780Z,99.99
2018-08-13T12:21:33.676Z,99.99
2018-08-13T12:22:33.592Z,99.99
2018-08-13T12:23:33.522Z,99.99
2018-08-13T12:24:33.428Z,99.99
2018-08-13T12:25:33.350Z,99.99
2018-08-13T12:26:33.263Z,99.99
2018-08-13T12:27:33.244Z,99.99
2018-08-13T12:28:33.148Z,99.99
2018-08-13T12:29:33.022Z,99.99
2018-08-13T12:30:32.955Z,99.99
2018-08-13T12:33:15.256Z,99.99
2018-08-13T12:34:15.201Z,99.99
2018-08-13T12:35:15.080Z,99.99
2018-08-13T12:37:57.301Z,99.99
2018-08-13T12:38:57.201Z,99.99
2018-08-13T12:39:57.081Z,99.99
2018-08-13T12:42:39.241Z,99.99
2018-08-13T12:43:40.208Z,99.99
2018-08-13T12:44:39.069Z,99.99
2018-08-13T12:47:21.239Z,99.99
2018-08-13T12:48:21.221Z,99.99
2018-08-13T12:49:21.114Z,99.99
2018-08-13T12:50:21.053Z,99.99
2018-08-13T12:51:20.951Z,99.99
2018-08-13T12:52:20.852Z,99.99
2018-08-13T12:53:20.820Z,99.99
2018-08-13T12:56:02.756Z,99.99
2018-08-13T12:57:02.700Z,99.99
2018-08-13T12:58:02.583Z,99.99
2018-08-13T12:59:02.550Z,99.99
2018-08-13T13:00:02.438Z,99.99
2018-08-13T13:01:02.350Z,99.99
2018-08-13T13:02:02.266Z,99.99
2018-08-13T13:04:44.272Z,99.99
2018-08-13T13:05:44.610Z,99.99
2018-08-13T13:06:44.150Z,99.99
2018-08-13T13:07:44.019Z,99.99
2018-08-13T13:08:43.925Z,99.99
2018-08-13T13:09:43.873Z,99.99
2018-08-13T13:10:43.780Z,99.99
2018-08-13T13:11:43.732Z,99.99
2018-08-13T13:12:43.605Z,99.99
2018-08-13T13:15:25.786Z,99.99
2018-08-13T13:16:25.675Z,99.99
2018-08-13T13:17:25.612Z,99.99
2018-08-13T13:18:25.531Z,99.99
2018-08-13T13:19:25.456Z,99.99
2018-08-13T13:20:25.410Z,99.99
2018-08-13T13:21:25.277Z,99.99
2018-08-13T13:22:25.216Z,99.99
2018-08-13T13:23:25.121Z,99.99
2018-08-13T13:24:25.076Z,99.99
2018-08-13T13:25:24.987Z,99.99
2018-08-13T13:26:24.892Z,99.99
2018-08-13T13:27:24.832Z,99.99
2018-08-13T13:30:06.776Z,99.99
2018-08-13T13:32:48.765Z,99.99
2018-08-13T13:33:48.697Z,99.99
2018-08-13T13:34:48.612Z,99.99
2018-08-13T13:35:48.561Z,99.99
2018-08-13T13:36:48.446Z,99.99
2018-08-13T13:37:48.370Z,99.99
2018-08-13T13:38:48.282Z,99.99
2018-08-13T13:39:48.221Z,99.99
2018-08-13T13:40:48.158Z,99.99
2018-08-13T13:41:48.082Z,99.99
2018-08-13T13:42:47.984Z,99.99
2018-08-13T13:43:47.917Z,99.99
2018-08-13T13:44:47.863Z,99.99
2018-08-13T13:45:47.804Z,99.99
2018-08-13T13:46:47.672Z,99.99
2018-08-13T13:49:29.789Z,99.99
2018-08-13T13:50:29.689Z,99.99
2018-08-13T13:51:29.638Z,99.99
2018-08-13T13:52:29.528Z,99.99
2018-08-13T13:53:29.451Z,99.99
2018-08-13T13:54:29.363Z,99.99
2018-08-13T13:55:29.304Z,99.99
2018-08-13T13:56:30.240Z,99.99
2018-08-13T13:57:29.155Z,99.99
2018-08-13T13:58:29.207Z,99.99
2018-08-13T13:59:28.976Z,99.99
2018-08-13T14:02:11.297Z,99.99
2018-08-13T14:04:53.285Z,99.99
2018-08-13T14:05:53.245Z,99.99
2018-08-13T14:06:53.119Z,99.99
2018-08-13T14:07:53.039Z,99.99
2018-08-13T14:08:52.959Z,99.99
2018-08-13T14:11:35.316Z,99.99
2018-08-13T14:14:17.264Z,99.99
2018-08-13T14:15:17.206Z,99.99
2018-08-13T14:16:17.133Z,99.99
2018-08-13T14:17:17.053Z,99.99
2018-08-13T14:18:16.954Z,99.99
2018-08-13T14:20:58.771Z,99.99
2018-08-13T14:21:58.731Z,99.99
2018-08-13T14:22:58.607Z,99.99
2018-08-13T14:25:40.786Z,99.99
2018-08-13T14:26:41.719Z,99.99
2018-08-13T14:27:40.610Z,99.99
2018-08-13T14:28:40.540Z,99.99
2018-08-13T14:29:40.450Z,99.99
2018-08-13T14:30:40.380Z,99.99
2018-08-13T14:31:40.339Z,99.99
2018-08-13T14:32:40.251Z,99.99
2018-08-13T14:33:40.136Z,99.99
2018-08-13T14:34:40.094Z,99.99
2018-08-13T14:35:39.983Z,99.99
2018-08-13T14:36:39.908Z,99.99
2018-08-13T14:37:39.837Z,99.99
2018-08-13T14:38:39.749Z,99.99
2018-08-13T14:39:39.682Z,99.99
2018-08-13T14:40:39.597Z,99.99
2018-08-13T14:41:39.516Z,99.99
2018-08-13T14:42:39.458Z,99.99
2018-08-13T14:43:39.355Z,99.99
2018-08-13T14:44:39.288Z,99.99
2018-08-13T14:45:39.202Z,99.99
2018-08-13T14:46:39.126Z,99.99
2018-08-13T14:47:39.058Z,99.99
2018-08-13T14:48:39.058Z,99.99
2018-08-13T14:49:38.881Z,99.99
2018-08-13T14:50:38.796Z,99.99
2018-08-13T14:51:38.714Z,99.99
2018-08-13T14:52:38.671Z,99.99
2018-08-13T14:53:38.583Z,99.99
2018-08-13T14:54:38.477Z,99.99
2018-08-13T14:55:38.397Z,99.99
2018-08-13T14:58:20.312Z,99.99
2018-08-13T14:59:20.231Z,99.99
2018-08-13T15:00:20.141Z,99.99
2018-08-13T15:01:20.106Z,99.99
2018-08-13T15:02:20.000Z,99.99
2018-08-13T15:03:19.976Z,99.99
2018-08-13T15:04:19.809Z,99.99
2018-08-13T15:07:01.797Z,99.99
2018-08-13T15:08:01.755Z,99.99
2018-08-13T15:09:01.620Z,99.99
2018-08-13T15:11:43.782Z,99.99
2018-08-13T15:12:44.762Z,99.99
2018-08-13T15:13:43.634Z,99.99
2018-08-13T15:16:25.788Z,99.99